Pontiac, MI (48340)

1:17 PM EDT on July 28, 2016 (GMT -0400)
Lake Angelus Shores | | Change Station

Elev 0 ft 42.69 °N, 83.33 °W | Updated 6 minutes ago

Overcast
Overcast
79.7 °F
Feels Like 82 °F
N
4.3
Wind Variable Wind from NNE
Gusts 8.1 mph

Today
High -- | Low -- °F
--% Chance of Precip.
Yesterday
High -- | Low -- °F
Precip. -- in
Pressure 29.91 in
Visibility 10.0 miles
Clouds Overcast 20000 ft
Heat Index 82 °F
Dew Point 68 °F
Humidity 66%
Rainfall Not available.
Snow Depth Not available.
6:21 AM 8:57 PM
Waning Crescent, 30% visible
METAR KPTK 281653Z 03008KT 10SM OVC200 27/17 A2993 RMK AO2 SLP128 T02670167
Pressure 29.91 in
Visibility 10.0 miles
Clouds Overcast 20000 ft
Heat Index 82 °F
Dew Point 68 °F
Humidity 66%
Rainfall Not available.
Snow Depth Not available.
6:21 AM 8:57 PM
Waning Crescent, 30% visible
METAR KPTK 281653Z 03008KT 10SM OVC200 27/17 A2993 RMK AO2 SLP128 T02670167

10-Day Weather Forecast

Almanac

Astronomy

Jul. 28, 2016 Rise Set
Actual Time
Civil Twilight
Nautical Twilight
Astronomical Twilight
Moon
Length of Visible Light
Length of Day
Tomorrow will be .
, % of the Moon is Illuminated

Today's Extremes

State Highs State Lows

Community

WunderPhotos

Upload Photos

1,928,163 photos uploaded!

WunderBlog® & News

Nearby

Air Quality

  Air Quality AQ Index Pollutant
Not available.

Snow Depth

Station Depth Elevation

Earthquake Activity

City Distance Mag. Time & Date
Minimum magnitude displayed is 2.5.

Coastal Water Temperatures

Place Temperature

Stations

Nearby Weather Stations

Station Location Temp. Windchill Dew Point Humidity Wind Precip. Elev Updated Type
                   

Watches & Warnings

There are currently no watches in effect.